sensor_id;sensor_type;location;lat;lon;timestamp;pressure;altitude;pressure_sealevel;temperature;humidity
65758;BME280;52495;52.208;5.158;2022-12-13T00:00:22;101292.69;;;-2.75;83.81
65758;BME280;52495;52.208;5.158;2022-12-13T00:02:49;101288.47;;;-2.75;83.72
65758;BME280;52495;52.208;5.158;2022-12-13T00:05:17;101285.22;;;-2.72;84.16
65758;BME280;52495;52.208;5.158;2022-12-13T00:07:43;101291.06;;;-2.73;83.86
65758;BME280;52495;52.208;5.158;2022-12-13T00:10:11;101292.00;;;-2.71;83.58
65758;BME280;52495;52.208;5.158;2022-12-13T00:12:39;101286.88;;;-2.72;83.84
65758;BME280;52495;52.208;5.158;2022-12-13T00:15:06;101276.78;;;-2.72;84.01
65758;BME280;52495;52.208;5.158;2022-12-13T00:17:33;101278.41;;;-2.73;83.76
65758;BME280;52495;52.208;5.158;2022-12-13T00:20:00;101277.63;;;-2.72;83.91
65758;BME280;52495;52.208;5.158;2022-12-13T00:22:27;101278.38;;;-2.75;83.62
65758;BME280;52495;52.208;5.158;2022-12-13T00:24:54;101279.16;;;-2.76;83.76
65758;BME280;52495;52.208;5.158;2022-12-13T00:27:24;101278.22;;;-2.78;83.99
65758;BME280;52495;52.208;5.158;2022-12-13T00:29:51;101274.06;;;-2.77;83.56
65758;BME280;52495;52.208;5.158;2022-12-13T00:32:18;101271.44;;;-2.79;84.50
65758;BME280;52495;52.208;5.158;2022-12-13T00:34:45;101263.00;;;-2.79;84.11
65758;BME280;52495;52.208;5.158;2022-12-13T00:37:12;101262.91;;;-2.81;84.01
65758;BME280;52495;52.208;5.158;2022-12-13T00:39:39;101256.97;;;-2.83;84.01
65758;BME280;52495;52.208;5.158;2022-12-13T00:42:06;101266.25;;;-2.82;83.73
65758;BME280;52495;52.208;5.158;2022-12-13T00:44:34;101262.13;;;-2.80;84.17
65758;BME280;52495;52.208;5.158;2022-12-13T00:47:00;101261.09;;;-2.85;84.00
65758;BME280;52495;52.208;5.158;2022-12-13T00:49:27;101258.31;;;-2.90;84.38
65758;BME280;52495;52.208;5.158;2022-12-13T00:51:54;101255.00;;;-2.88;84.28
65758;BME280;52495;52.208;5.158;2022-12-13T00:54:20;101258.28;;;-2.91;84.57
65758;BME280;52495;52.208;5.158;2022-12-13T00:56:47;101253.97;;;-2.94;84.26
65758;BME280;52495;52.208;5.158;2022-12-13T00:59:15;101249.69;;;-2.95;84.29
65758;BME280;52495;52.208;5.158;2022-12-13T01:01:44;101252.22;;;-2.95;84.51
65758;BME280;52495;52.208;5.158;2022-12-13T01:04:11;101253.16;;;-2.93;84.07
65758;BME280;52495;52.208;5.158;2022-12-13T01:06:39;101254.16;;;-2.89;84.00
65758;BME280;52495;52.208;5.158;2022-12-13T01:09:11;101257.53;;;-2.88;83.99
65758;BME280;52495;52.208;5.158;2022-12-13T01:11:40;101253.16;;;-2.93;83.70
65758;BME280;52495;52.208;5.158;2022-12-13T01:14:06;101258.13;;;-2.94;83.21
65758;BME280;52495;52.208;5.158;2022-12-13T01:16:33;101268.19;;;-2.96;83.25
65758;BME280;52495;52.208;5.158;2022-12-13T01:19:01;101256.25;;;-2.98;83.18
65758;BME280;52495;52.208;5.158;2022-12-13T01:21:28;101251.88;;;-3.02;83.38
65758;BME280;52495;52.208;5.158;2022-12-13T01:23:59;101247.44;;;-3.08;83.22
65758;BME280;52495;52.208;5.158;2022-12-13T01:26:27;101245.56;;;-3.12;82.90
65758;BME280;52495;52.208;5.158;2022-12-13T01:28:54;101246.25;;;-3.15;82.94
65758;BME280;52495;52.208;5.158;2022-12-13T01:31:21;101244.41;;;-3.19;82.46
65758;BME280;52495;52.208;5.158;2022-12-13T01:33:48;101246.94;;;-3.19;82.87
65758;BME280;52495;52.208;5.158;2022-12-13T01:36:19;101254.63;;;-3.16;83.00
65758;BME280;52495;52.208;5.158;2022-12-13T01:38:48;101249.66;;;-3.14;82.86
65758;BME280;52495;52.208;5.158;2022-12-13T01:41:15;101247.00;;;-3.17;82.79
65758;BME280;52495;52.208;5.158;2022-12-13T01:43:51;101248.66;;;-3.18;82.48
65758;BME280;52495;52.208;5.158;2022-12-13T01:46:18;101244.53;;;-3.16;82.09
65758;BME280;52495;52.208;5.158;2022-12-13T01:48:48;101248.72;;;-3.16;82.26
65758;BME280;52495;52.208;5.158;2022-12-13T01:51:23;101240.28;;;-3.17;82.32
65758;BME280;52495;52.208;5.158;2022-12-13T01:53:52;101246.06;;;-3.20;82.20
65758;BME280;52495;52.208;5.158;2022-12-13T01:56:26;101251.75;;;-3.24;81.60
65758;BME280;52495;52.208;5.158;2022-12-13T01:58:56;101250.69;;;-3.29;81.85
65758;BME280;52495;52.208;5.158;2022-12-13T02:01:24;101250.50;;;-3.33;81.61
65758;BME280;52495;52.208;5.158;2022-12-13T02:03:51;101243.47;;;-3.39;82.27
65758;BME280;52495;52.208;5.158;2022-12-13T02:06:25;101243.56;;;-3.38;82.32
65758;BME280;52495;52.208;5.158;2022-12-13T02:08:53;101241.97;;;-3.36;82.68
65758;BME280;52495;52.208;5.158;2022-12-13T02:11:20;101243.47;;;-3.39;81.77
65758;BME280;52495;52.208;5.158;2022-12-13T02:13:48;101247.69;;;-3.40;82.17
65758;BME280;52495;52.208;5.158;2022-12-13T02:16:21;101245.00;;;-3.43;82.37
65758;BME280;52495;52.208;5.158;2022-12-13T02:19:01;101241.53;;;-3.45;82.11
65758;BME280;52495;52.208;5.158;2022-12-13T02:21:40;101239.75;;;-3.47;81.58
65758;BME280;52495;52.208;5.158;2022-12-13T02:24:41;101245.28;;;-3.55;81.76
65758;BME280;52495;52.208;5.158;2022-12-13T02:27:12;101239.28;;;-3.57;82.33
65758;BME280;52495;52.208;5.158;2022-12-13T02:30:21;101247.66;;;-3.58;82.64
65758;BME280;52495;52.208;5.158;2022-12-13T02:32:57;101248.75;;;-3.53;82.53
65758;BME280;52495;52.208;5.158;2022-12-13T02:35:36;101246.06;;;-3.56;81.70
65758;BME280;52495;52.208;5.158;2022-12-13T02:38:11;101245.81;;;-3.62;82.22
65758;BME280;52495;52.208;5.158;2022-12-13T02:40:44;101234.69;;;-3.66;82.12
65758;BME280;52495;52.208;5.158;2022-12-13T02:43:17;101235.47;;;-3.67;81.96
65758;BME280;52495;52.208;5.158;2022-12-13T02:45:48;101236.19;;;-3.69;82.16
65758;BME280;52495;52.208;5.158;2022-12-13T02:48:18;101235.25;;;-3.71;81.70
65758;BME280;52495;52.208;5.158;2022-12-13T02:50:47;101237.00;;;-3.70;82.77
65758;BME280;52495;52.208;5.158;2022-12-13T02:53:16;101238.00;;;-3.67;82.25
65758;BME280;52495;52.208;5.158;2022-12-13T02:55:46;101225.25;;;-3.70;82.05
65758;BME280;52495;52.208;5.158;2022-12-13T02:58:15;101229.28;;;-3.73;82.14
65758;BME280;52495;52.208;5.158;2022-12-13T03:00:52;101222.59;;;-3.73;81.44
65758;BME280;52495;52.208;5.158;2022-12-13T03:03:30;101223.44;;;-3.72;81.18
65758;BME280;52495;52.208;5.158;2022-12-13T03:06:07;101229.38;;;-3.72;81.95
65758;BME280;52495;52.208;5.158;2022-12-13T03:09:01;101223.38;;;-3.74;81.31
65758;BME280;52495;52.208;5.158;2022-12-13T03:11:44;101225.03;;;-3.74;81.68
65758;BME280;52495;52.208;5.158;2022-12-13T03:14:36;101222.38;;;-3.77;81.81
65758;BME280;52495;52.208;5.158;2022-12-13T03:17:06;101222.38;;;-3.77;82.44
65758;BME280;52495;52.208;5.158;2022-12-13T03:19:35;101220.75;;;-3.75;82.86
65758;BME280;52495;52.208;5.158;2022-12-13T03:22:04;101223.22;;;-3.77;82.15
65758;BME280;52495;52.208;5.158;2022-12-13T03:24:31;101225.91;;;-3.74;82.34
65758;BME280;52495;52.208;5.158;2022-12-13T03:26:58;101217.44;;;-3.74;82.49
65758;BME280;52495;52.208;5.158;2022-12-13T03:29:25;101215.06;;;-3.71;81.99
65758;BME280;52495;52.208;5.158;2022-12-13T03:31:52;101218.41;;;-3.72;81.69
65758;BME280;52495;52.208;5.158;2022-12-13T03:34:20;101222.44;;;-3.76;82.30
65758;BME280;52495;52.208;5.158;2022-12-13T03:36:47;101209.88;;;-3.74;81.98
65758;BME280;52495;52.208;5.158;2022-12-13T03:39:14;101218.13;;;-3.78;82.36
65758;BME280;52495;52.208;5.158;2022-12-13T03:41:41;101217.25;;;-3.79;82.50
65758;BME280;52495;52.208;5.158;2022-12-13T03:44:07;101219.59;;;-3.82;81.99
65758;BME280;52495;52.208;5.158;2022-12-13T03:46:35;101212.78;;;-3.85;81.48
65758;BME280;52495;52.208;5.158;2022-12-13T03:49:02;101214.50;;;-3.84;82.12
65758;BME280;52495;52.208;5.158;2022-12-13T03:51:30;101216.88;;;-3.87;81.41
65758;BME280;52495;52.208;5.158;2022-12-13T03:53:57;101213.19;;;-3.93;82.00
65758;BME280;52495;52.208;5.158;2022-12-13T03:56:24;101214.94;;;-3.92;81.96
65758;BME280;52495;52.208;5.158;2022-12-13T03:58:50;101216.34;;;-3.98;81.47
65758;BME280;52495;52.208;5.158;2022-12-13T04:01:17;101220.72;;;-3.95;82.38
65758;BME280;52495;52.208;5.158;2022-12-13T04:03:45;101213.69;;;-4.01;81.47
65758;BME280;52495;52.208;5.158;2022-12-13T04:06:12;101218.59;;;-4.04;81.77
65758;BME280;52495;52.208;5.158;2022-12-13T04:08:41;101220.19;;;-4.06;81.53
65758;BME280;52495;52.208;5.158;2022-12-13T04:11:08;101222.41;;;-4.12;81.00
65758;BME280;52495;52.208;5.158;2022-12-13T04:13:57;101209.56;;;-4.17;81.29
65758;BME280;52495;52.208;5.158;2022-12-13T04:16:24;101213.03;;;-4.15;80.47
65758;BME280;52495;52.208;5.158;2022-12-13T04:18:51;101208.00;;;-4.15;80.85
65758;BME280;52495;52.208;5.158;2022-12-13T04:21:18;101213.50;;;-4.22;80.89
65758;BME280;52495;52.208;5.158;2022-12-13T04:23:46;101213.13;;;-4.30;80.38
65758;BME280;52495;52.208;5.158;2022-12-13T04:26:13;101217.31;;;-4.30;80.54
65758;BME280;52495;52.208;5.158;2022-12-13T04:28:40;101210.34;;;-4.36;80.34
65758;BME280;52495;52.208;5.158;2022-12-13T04:36:44;101209.28;;;-4.39;79.37
65758;BME280;52495;52.208;5.158;2022-12-13T04:42:17;101211.06;;;-4.55;78.97
65758;BME280;52495;52.208;5.158;2022-12-13T04:44:44;101212.47;;;-4.60;80.59
65758;BME280;52495;52.208;5.158;2022-12-13T04:47:10;101212.06;;;-4.68;79.96
65758;BME280;52495;52.208;5.158;2022-12-13T04:49:37;101207.19;;;-4.65;80.38
65758;BME280;52495;52.208;5.158;2022-12-13T04:52:04;101204.84;;;-4.62;80.40
65758;BME280;52495;52.208;5.158;2022-12-13T04:54:30;101204.22;;;-4.58;80.69
65758;BME280;52495;52.208;5.158;2022-12-13T04:56:58;101196.72;;;-4.56;80.39
65758;BME280;52495;52.208;5.158;2022-12-13T04:59:26;101199.25;;;-4.56;80.83
65758;BME280;52495;52.208;5.158;2022-12-13T05:01:53;101195.88;;;-4.57;80.64
65758;BME280;52495;52.208;5.158;2022-12-13T05:04:19;101196.81;;;-4.54;79.89
65758;BME280;52495;52.208;5.158;2022-12-13T05:06:46;101186.88;;;-4.51;80.45
65758;BME280;52495;52.208;5.158;2022-12-13T05:09:13;101190.41;;;-4.48;80.97
65758;BME280;52495;52.208;5.158;2022-12-13T05:11:40;101178.09;;;-4.42;80.21
65758;BME280;52495;52.208;5.158;2022-12-13T05:14:06;101178.84;;;-4.44;81.10
65758;BME280;52495;52.208;5.158;2022-12-13T05:16:34;101175.53;;;-4.43;81.39
65758;BME280;52495;52.208;5.158;2022-12-13T05:19:01;101185.03;;;-4.37;81.02
65758;BME280;52495;52.208;5.158;2022-12-13T05:21:28;101181.09;;;-4.32;81.84
65758;BME280;52495;52.208;5.158;2022-12-13T05:23:54;101182.09;;;-4.29;81.85
65758;BME280;52495;52.208;5.158;2022-12-13T05:26:21;101179.78;;;-4.24;81.53
65758;BME280;52495;52.208;5.158;2022-12-13T05:28:48;101171.59;;;-4.20;82.05
65758;BME280;52495;52.208;5.158;2022-12-13T05:31:15;101165.91;;;-4.16;81.41
65758;BME280;52495;52.208;5.158;2022-12-13T05:33:43;101168.28;;;-4.19;82.18
65758;BME280;52495;52.208;5.158;2022-12-13T05:36:09;101164.19;;;-4.17;82.44
65758;BME280;52495;52.208;5.158;2022-12-13T05:38:36;101168.34;;;-4.17;82.27
65758;BME280;52495;52.208;5.158;2022-12-13T05:41:03;101170.97;;;-4.16;82.98
65758;BME280;52495;52.208;5.158;2022-12-13T05:43:30;101176.56;;;-4.21;83.11
65758;BME280;52495;52.208;5.158;2022-12-13T05:45:57;101170.81;;;-4.19;82.15
65758;BME280;52495;52.208;5.158;2022-12-13T05:48:24;101175.13;;;-4.16;82.10
65758;BME280;52495;52.208;5.158;2022-12-13T05:50:52;101167.66;;;-4.15;82.71
65758;BME280;52495;52.208;5.158;2022-12-13T05:53:18;101161.09;;;-4.11;82.37
65758;BME280;52495;52.208;5.158;2022-12-13T05:55:45;101161.97;;;-4.10;81.74
65758;BME280;52495;52.208;5.158;2022-12-13T05:58:12;101162.66;;;-4.13;81.58
65758;BME280;52495;52.208;5.158;2022-12-13T06:00:41;101166.78;;;-4.15;81.40
65758;BME280;52495;52.208;5.158;2022-12-13T06:03:07;101166.63;;;-4.18;81.99
65758;BME280;52495;52.208;5.158;2022-12-13T06:05:36;101173.19;;;-4.22;82.03
65758;BME280;52495;52.208;5.158;2022-12-13T06:08:04;101170.75;;;-4.20;82.12
65758;BME280;52495;52.208;5.158;2022-12-13T06:10:31;101169.81;;;-4.22;80.85
65758;BME280;52495;52.208;5.158;2022-12-13T06:12:58;101171.38;;;-4.24;81.66
65758;BME280;52495;52.208;5.158;2022-12-13T06:15:25;101172.81;;;-4.30;81.67
65758;BME280;52495;52.208;5.158;2022-12-13T06:17:51;101172.81;;;-4.30;81.91
65758;BME280;52495;52.208;5.158;2022-12-13T06:20:18;101165.03;;;-4.34;81.18
65758;BME280;52495;52.208;5.158;2022-12-13T06:22:45;101175.16;;;-4.33;82.65
65758;BME280;52495;52.208;5.158;2022-12-13T06:25:14;101164.25;;;-4.33;82.31
65758;BME280;52495;52.208;5.158;2022-12-13T06:27:40;101166.03;;;-4.31;82.57
65758;BME280;52495;52.208;5.158;2022-12-13T06:30:08;101161.88;;;-4.30;82.71
65758;BME280;52495;52.208;5.158;2022-12-13T06:32:35;101165.34;;;-4.28;82.13
65758;BME280;52495;52.208;5.158;2022-12-13T06:35:03;101159.50;;;-4.27;83.35
65758;BME280;52495;52.208;5.158;2022-12-13T06:37:29;101162.03;;;-4.27;82.55
65758;BME280;52495;52.208;5.158;2022-12-13T06:39:56;101168.06;;;-4.23;82.87
65758;BME280;52495;52.208;5.158;2022-12-13T06:42:24;101164.75;;;-4.22;82.30
65758;BME280;52495;52.208;5.158;2022-12-13T06:44:51;101173.31;;;-4.19;83.32
65758;BME280;52495;52.208;5.158;2022-12-13T06:47:18;101176.69;;;-4.18;82.81
65758;BME280;52495;52.208;5.158;2022-12-13T06:49:45;101176.78;;;-4.17;83.16
65758;BME280;52495;52.208;5.158;2022-12-13T06:52:13;101170.81;;;-4.19;82.93
65758;BME280;52495;52.208;5.158;2022-12-13T06:54:40;101176.84;;;-4.15;83.19
65758;BME280;52495;52.208;5.158;2022-12-13T06:57:07;101171.75;;;-4.17;82.64
65758;BME280;52495;52.208;5.158;2022-12-13T06:59:35;101184.34;;;-4.17;82.52
65758;BME280;52495;52.208;5.158;2022-12-13T07:02:01;101177.44;;;-4.21;83.22
65758;BME280;52495;52.208;5.158;2022-12-13T07:04:29;101188.31;;;-4.22;82.75
65758;BME280;52495;52.208;5.158;2022-12-13T07:06:55;101186.66;;;-4.21;83.26
65758;BME280;52495;52.208;5.158;2022-12-13T07:09:22;101187.34;;;-4.24;82.80
65758;BME280;52495;52.208;5.158;2022-12-13T07:11:49;101184.00;;;-4.24;83.00
65758;BME280;52495;52.208;5.158;2022-12-13T07:14:15;101189.75;;;-4.27;82.79
65758;BME280;52495;52.208;5.158;2022-12-13T07:16:43;101186.50;;;-4.24;82.42
65758;BME280;52495;52.208;5.158;2022-12-13T07:19:10;101190.81;;;-4.22;82.95
65758;BME280;52495;52.208;5.158;2022-12-13T07:21:37;101189.31;;;-4.18;81.87
65758;BME280;52495;52.208;5.158;2022-12-13T07:24:04;101180.69;;;-4.23;82.39
65758;BME280;52495;52.208;5.158;2022-12-13T07:26:31;101186.56;;;-4.23;82.37
65758;BME280;52495;52.208;5.158;2022-12-13T07:28:58;101190.81;;;-4.22;81.52
65758;BME280;52495;52.208;5.158;2022-12-13T07:31:25;101190.75;;;-4.23;81.74
65758;BME280;52495;52.208;5.158;2022-12-13T07:33:53;101188.94;;;-4.26;81.31
65758;BME280;52495;52.208;5.158;2022-12-13T07:36:22;101190.81;;;-4.22;82.30
65758;BME280;52495;52.208;5.158;2022-12-13T07:38:52;101187.50;;;-4.21;81.88
65758;BME280;52495;52.208;5.158;2022-12-13T07:41:19;101188.41;;;-4.20;82.37
65758;BME280;52495;52.208;5.158;2022-12-13T07:43:46;101196.09;;;-4.17;82.26
65758;BME280;52495;52.208;5.158;2022-12-13T07:46:13;101201.13;;;-4.17;80.94
65758;BME280;52495;52.208;5.158;2022-12-13T07:48:40;101202.00;;;-4.17;80.82
65758;BME280;52495;52.208;5.158;2022-12-13T07:51:10;101198.38;;;-4.22;80.81
65758;BME280;52495;52.208;5.158;2022-12-13T07:53:38;101205.09;;;-4.22;81.49
65758;BME280;52495;52.208;5.158;2022-12-13T07:56:07;101216.75;;;-4.24;80.65
65758;BME280;52495;52.208;5.158;2022-12-13T07:58:34;101214.25;;;-4.24;80.35
65758;BME280;52495;52.208;5.158;2022-12-13T08:01:03;101206.47;;;-4.29;80.17
65758;BME280;52495;52.208;5.158;2022-12-13T08:03:30;101217.22;;;-4.32;81.73
65758;BME280;52495;52.208;5.158;2022-12-13T08:05:58;101218.91;;;-4.32;81.37
65758;BME280;52495;52.208;5.158;2022-12-13T08:08:27;101216.22;;;-4.35;82.01
65758;BME280;52495;52.208;5.158;2022-12-13T08:10:54;101218.03;;;-4.33;82.24
65758;BME280;52495;52.208;5.158;2022-12-13T08:13:21;101218.03;;;-4.33;81.90
65758;BME280;52495;52.208;5.158;2022-12-13T08:15:48;101222.66;;;-4.24;81.82
65758;BME280;52495;52.208;5.158;2022-12-13T08:18:14;101229.53;;;-4.21;82.33
65758;BME280;52495;52.208;5.158;2022-12-13T08:20:41;101213.66;;;-4.19;82.41
65758;BME280;52495;52.208;5.158;2022-12-13T08:23:08;101217.94;;;-4.18;82.88
65758;BME280;52495;52.208;5.158;2022-12-13T08:25:36;101221.28;;;-4.17;83.32
65758;BME280;52495;52.208;5.158;2022-12-13T08:28:03;101216.50;;;-4.13;82.41
65758;BME280;52495;52.208;5.158;2022-12-13T08:30:31;101220.97;;;-4.07;82.49
65758;BME280;52495;52.208;5.158;2022-12-13T08:32:58;101219.41;;;-4.05;82.75
65758;BME280;52495;52.208;5.158;2022-12-13T08:35:26;101227.19;;;-4.00;82.46
65758;BME280;52495;52.208;5.158;2022-12-13T08:37:53;101223.88;;;-3.99;81.90
65758;BME280;52495;52.208;5.158;2022-12-13T08:40:20;101215.41;;;-4.00;82.48
65758;BME280;52495;52.208;5.158;2022-12-13T08:42:48;101224.16;;;-3.93;82.17
65758;BME280;52495;52.208;5.158;2022-12-13T08:45:14;101225.22;;;-3.88;82.95
65758;BME280;52495;52.208;5.158;2022-12-13T08:47:41;101221.19;;;-3.84;82.59
65758;BME280;52495;52.208;5.158;2022-12-13T08:50:08;101230.00;;;-3.76;82.27
65758;BME280;52495;52.208;5.158;2022-12-13T08:52:35;101223.59;;;-3.69;82.99
65758;BME280;52495;52.208;5.158;2022-12-13T08:55:02;101217.97;;;-3.63;82.65
65758;BME280;52495;52.208;5.158;2022-12-13T08:57:28;101219.91;;;-3.58;82.42
65758;BME280;52495;52.208;5.158;2022-12-13T08:59:56;101216.88;;;-3.51;82.88
65758;BME280;52495;52.208;5.158;2022-12-13T09:02:24;101228.84;;;-3.46;82.87
65758;BME280;52495;52.208;5.158;2022-12-13T09:04:51;101226.53;;;-3.42;83.26
65758;BME280;52495;52.208;5.158;2022-12-13T09:07:18;101227.63;;;-3.37;83.37
65758;BME280;52495;52.208;5.158;2022-12-13T09:09:45;101220.19;;;-3.33;83.29
65758;BME280;52495;52.208;5.158;2022-12-13T09:12:11;101222.97;;;-3.27;83.47
65758;BME280;52495;52.208;5.158;2022-12-13T09:14:38;101224.22;;;-3.19;83.59
65758;BME280;52495;52.208;5.158;2022-12-13T09:17:06;101216.03;;;-3.13;83.69
65758;BME280;52495;52.208;5.158;2022-12-13T09:19:34;101208.72;;;-3.07;83.64
65758;BME280;52495;52.208;5.158;2022-12-13T09:22:01;101211.53;;;-3.01;83.58
65758;BME280;52495;52.208;5.158;2022-12-13T09:24:27;101211.94;;;-2.92;84.23
65758;BME280;52495;52.208;5.158;2022-12-13T09:26:54;101215.47;;;-2.88;84.36
65758;BME280;52495;52.208;5.158;2022-12-13T09:29:21;101216.53;;;-2.83;84.68
65758;BME280;52495;52.208;5.158;2022-12-13T09:31:48;101218.59;;;-2.74;84.99
65758;BME280;52495;52.208;5.158;2022-12-13T09:34:16;101218.84;;;-2.68;85.32
65758;BME280;52495;52.208;5.158;2022-12-13T09:36:43;101214.06;;;-2.62;84.51
65758;BME280;52495;52.208;5.158;2022-12-13T09:39:09;101210.13;;;-2.55;84.92
65758;BME280;52495;52.208;5.158;2022-12-13T09:41:39;101206.94;;;-2.51;84.85
65758;BME280;52495;52.208;5.158;2022-12-13T09:44:13;101197.16;;;-2.43;84.77
65758;BME280;52495;52.208;5.158;2022-12-13T09:46:43;101196.44;;;-2.39;85.04
65758;BME280;52495;52.208;5.158;2022-12-13T09:49:17;101193.34;;;-2.33;85.07
65758;BME280;52495;52.208;5.158;2022-12-13T09:51:52;101187.66;;;-2.27;84.97
65758;BME280;52495;52.208;5.158;2022-12-13T09:54:21;101192.09;;;-2.22;85.31
65758;BME280;52495;52.208;5.158;2022-12-13T09:56:49;101188.00;;;-2.18;85.38
65758;BME280;52495;52.208;5.158;2022-12-13T09:59:17;101186.59;;;-2.11;85.14
65758;BME280;52495;52.208;5.158;2022-12-13T10:01:46;101183.25;;;-2.10;84.98
65758;BME280;52495;52.208;5.158;2022-12-13T10:04:13;101181.78;;;-2.05;85.33
65758;BME280;52495;52.208;5.158;2022-12-13T10:06:42;101181.97;;;-2.01;86.01
65758;BME280;52495;52.208;5.158;2022-12-13T10:09:12;101171.97;;;-1.98;85.83
65758;BME280;52495;52.208;5.158;2022-12-13T10:11:46;101178.25;;;-1.88;85.57
65758;BME280;52495;52.208;5.158;2022-12-13T10:14:17;101181.84;;;-1.83;85.82
65758;BME280;52495;52.208;5.158;2022-12-13T10:16:48;101177.75;;;-1.79;85.73
65758;BME280;52495;52.208;5.158;2022-12-13T10:19:18;101181.25;;;-1.75;85.29
65758;BME280;52495;52.208;5.158;2022-12-13T10:21:48;101178.00;;;-1.73;86.01
65758;BME280;52495;52.208;5.158;2022-12-13T10:24:18;101162.00;;;-1.72;86.06
65758;BME280;52495;52.208;5.158;2022-12-13T10:26:45;101165.44;;;-1.70;85.42
65758;BME280;52495;52.208;5.158;2022-12-13T10:29:12;101169.81;;;-1.65;85.87
65758;BME280;52495;52.208;5.158;2022-12-13T10:31:41;101165.72;;;-1.62;85.61
65758;BME280;52495;52.208;5.158;2022-12-13T10:34:21;101165.84;;;-1.59;85.13
65758;BME280;52495;52.208;5.158;2022-12-13T10:36:50;101160.00;;;-1.58;85.90
65758;BME280;52495;52.208;5.158;2022-12-13T10:42:02;101158.63;;;-1.49;85.52
65758;BME280;52495;52.208;5.158;2022-12-13T10:44:29;101142.66;;;-1.47;85.52
65758;BME280;52495;52.208;5.158;2022-12-13T10:47:03;101154.84;;;-1.37;85.28
65758;BME280;52495;52.208;5.158;2022-12-13T10:49:39;101143.28;;;-1.30;85.65
65758;BME280;52495;52.208;5.158;2022-12-13T10:52:23;101141.72;;;-1.26;85.09
65758;BME280;52495;52.208;5.158;2022-12-13T10:54:52;101141.78;;;-1.25;84.42
65758;BME280;52495;52.208;5.158;2022-12-13T10:57:19;101135.63;;;-1.07;83.77
65758;BME280;52495;52.208;5.158;2022-12-13T10:59:47;101142.84;;;-1.18;84.11
65758;BME280;52495;52.208;5.158;2022-12-13T11:02:29;101144.50;;;-1.20;84.59
65758;BME280;52495;52.208;5.158;2022-12-13T11:04:56;101138.66;;;-1.17;84.92
65758;BME280;52495;52.208;5.158;2022-12-13T11:07:27;101139.75;;;-1.11;85.33
65758;BME280;52495;52.208;5.158;2022-12-13T11:09:54;101140.94;;;-1.01;83.88
65758;BME280;52495;52.208;5.158;2022-12-13T11:12:25;101135.72;;;-1.05;84.29
65758;BME280;52495;52.208;5.158;2022-12-13T11:14:54;101144.44;;;-0.97;83.91
65758;BME280;52495;52.208;5.158;2022-12-13T11:17:25;101141.16;;;-0.95;84.27
65758;BME280;52495;52.208;5.158;2022-12-13T11:19:53;101150.84;;;-0.83;84.07
65758;BME280;52495;52.208;5.158;2022-12-13T11:22:25;101142.13;;;-0.91;83.97
65758;BME280;52495;52.208;5.158;2022-12-13T11:24:58;101145.50;;;-0.90;83.27
65758;BME280;52495;52.208;5.158;2022-12-13T11:27:40;101144.91;;;-0.83;83.43
65758;BME280;52495;52.208;5.158;2022-12-13T11:30:12;101134.94;;;-0.79;83.10
65758;BME280;52495;52.208;5.158;2022-12-13T11:33:00;101134.22;;;-0.74;83.18
65758;BME280;52495;52.208;5.158;2022-12-13T11:35:37;101138.59;;;-0.70;82.51
65758;BME280;52495;52.208;5.158;2022-12-13T11:38:15;101126.09;;;-0.64;82.98
65758;BME280;52495;52.208;5.158;2022-12-13T11:40:53;101112.50;;;-0.66;82.35
65758;BME280;52495;52.208;5.158;2022-12-13T11:43:27;101110.19;;;-0.60;82.18
65758;BME280;52495;52.208;5.158;2022-12-13T11:46:02;101103.50;;;-0.58;82.42
65758;BME280;52495;52.208;5.158;2022-12-13T11:48:36;101108.47;;;-0.61;82.00
65758;BME280;52495;52.208;5.158;2022-12-13T11:51:07;101102.47;;;-0.63;82.22
65758;BME280;52495;52.208;5.158;2022-12-13T11:53:46;101100.75;;;-0.64;82.24
65758;BME280;52495;52.208;5.158;2022-12-13T11:56:19;101092.09;;;-0.71;80.86
65758;BME280;52495;52.208;5.158;2022-12-13T11:58:54;101095.56;;;-0.67;81.31
65758;BME280;52495;52.208;5.158;2022-12-13T12:01:28;101087.22;;;-0.65;81.32
65758;BME280;52495;52.208;5.158;2022-12-13T12:03:58;101087.56;;;-0.54;81.78
65758;BME280;52495;52.208;5.158;2022-12-13T12:06:31;101085.03;;;-0.54;81.44
65758;BME280;52495;52.208;5.158;2022-12-13T12:09:05;101076.38;;;-0.60;81.34
65758;BME280;52495;52.208;5.158;2022-12-13T12:11:34;101080.78;;;-0.55;81.73
65758;BME280;52495;52.208;5.158;2022-12-13T12:14:11;101085.84;;;-0.55;81.46
65758;BME280;52495;52.208;5.158;2022-12-13T12:16:43;101082.75;;;-0.46;81.38
65758;BME280;52495;52.208;5.158;2022-12-13T12:19:14;101084.38;;;-0.48;81.16
65758;BME280;52495;52.208;5.158;2022-12-13T12:21:53;101093.69;;;-0.47;81.52
65758;BME280;52495;52.208;5.158;2022-12-13T12:24:29;101093.03;;;-0.41;81.77
65758;BME280;52495;52.208;5.158;2022-12-13T12:27:10;101091.50;;;-0.36;81.81
65758;BME280;52495;52.208;5.158;2022-12-13T12:29:56;101092.56;;;-0.29;81.21
65758;BME280;52495;52.208;5.158;2022-12-13T12:32:32;101091.78;;;-0.27;80.84
65758;BME280;52495;52.208;5.158;2022-12-13T12:35:17;101087.59;;;-0.26;80.35
65758;BME280;52495;52.208;5.158;2022-12-13T12:37:52;101092.00;;;-0.21;81.41
65758;BME280;52495;52.208;5.158;2022-12-13T12:40:38;101088.66;;;-0.20;80.29
65758;BME280;52495;52.208;5.158;2022-12-13T12:43:12;101092.00;;;-0.21;80.62
65758;BME280;52495;52.208;5.158;2022-12-13T12:45:58;101079.53;;;-0.13;80.50
65758;BME280;52495;52.208;5.158;2022-12-13T12:48:54;101082.81;;;-0.16;80.08
65758;BME280;52495;52.208;5.158;2022-12-13T12:51:32;101080.44;;;-0.11;80.46
65758;BME280;52495;52.208;5.158;2022-12-13T12:54:17;101079.19;;;-0.24;80.04
65758;BME280;52495;52.208;5.158;2022-12-13T12:56:53;101074.94;;;-0.25;80.14
65758;BME280;52495;52.208;5.158;2022-12-13T12:59:28;101072.41;;;-0.25;80.47
65758;BME280;52495;52.208;5.158;2022-12-13T13:02:13;101064.78;;;-0.25;80.23
65758;BME280;52495;52.208;5.158;2022-12-13T13:05:24;101056.47;;;-0.21;79.88
65758;BME280;52495;52.208;5.158;2022-12-13T13:08:13;101053.53;;;-0.33;80.22
65758;BME280;52495;52.208;5.158;2022-12-13T13:10:44;101066.44;;;-0.25;79.96
65758;BME280;52495;52.208;5.158;2022-12-13T13:13:46;101047.72;;;-0.31;79.78
65758;BME280;52495;52.208;5.158;2022-12-13T13:16:39;101048.56;;;-0.30;79.57